Time;durP1;ratioP1;P1;durP2;ratioP2;P2;SDS_P1;SDS_P2;PMS_P1;PMS_P2;Temp;Humidity;BMP_temperature;BMP_pressure;BME280_temperature;BME280_humidity;BME280_pressure;Samples;Min_cycle;Max_cycle;Signal;HPM_P1;HPM_P2
2023/05/15 00:00:00;;;;;;;13.67;12.67;;;;;;;10.62;100.00;92820.88;5089979;28;20237;-78
2023/05/15 00:02:26;;;;;;;13.43;12.43;;;;;;;10.55;100.00;92799.50;5090959;28;20250;-77
2023/05/15 00:04:52;;;;;;;13.77;12.70;;;;;;;10.67;100.00;92796.56;5090406;28;20238;-77
2023/05/15 00:07:17;;;;;;;12.27;11.37;;;;;;;10.54;100.00;92784.13;5073388;28;20267;-78
2023/05/15 00:09:43;;;;;;;13.07;12.07;;;;;;;10.64;100.00;92771.00;5090067;28;20230;-78
2023/05/15 00:12:08;;;;;;;12.13;11.33;;;;;;;10.71;100.00;92740.09;5090463;28;20193;-78
2023/05/15 00:14:34;;;;;;;12.67;11.57;;;;;;;10.62;100.00;92746.97;5090546;28;20218;-78
2023/05/15 00:16:59;;;;;;;12.33;11.53;;;;;;;10.72;100.00;92768.56;5090427;28;20177;-77
2023/05/15 00:19:25;;;;;;;11.50;10.70;;;;;;;10.54;100.00;92771.84;5090238;28;20204;-77
2023/05/15 00:21:51;;;;;;;11.50;10.70;;;;;;;10.04;100.00;92803.47;5090983;28;20184;-79
2023/05/15 00:24:16;;;;;;;12.23;11.07;;;;;;;9.89;100.00;92811.41;5090343;28;20264;-78
2023/05/15 00:26:42;;;;;;;12.27;11.43;;;;;;;9.98;100.00;92824.66;5090279;28;20220;-77
2023/05/15 00:29:07;;;;;;;12.53;11.73;;;;;;;9.99;100.00;92800.13;5090559;28;20196;-78
2023/05/15 00:31:33;;;;;;;11.67;10.77;;;;;;;10.05;100.00;92780.78;5089805;28;20220;-77
2023/05/15 00:33:58;;;;;;;12.10;11.17;;;;;;;10.09;100.00;92832.19;5072863;28;20208;-77
2023/05/15 00:36:24;;;;;;;12.03;11.20;;;;;;;10.18;100.00;92830.56;5067882;28;20298;-77
2023/05/15 00:38:50;;;;;;;12.07;11.37;;;;;;;10.29;100.00;92829.44;5070002;28;20186;-78
2023/05/15 00:41:17;;;;;;;10.80;10.00;;;;;;;10.35;100.00;92825.75;5053662;28;20222;-77
2023/05/15 00:43:44;;;;;;;12.37;11.57;;;;;;;10.33;100.00;92812.22;5050042;28;20187;-77
2023/05/15 00:46:12;;;;;;;11.90;11.20;;;;;;;10.39;100.00;92824.19;5049839;28;20229;-79
2023/05/15 00:48:38;;;;;;;12.23;11.33;;;;;;;10.30;100.00;92817.19;5050289;28;20194;-78
2023/05/15 00:51:04;;;;;;;10.23;9.53;;;;;;;10.48;100.00;92813.91;5050083;28;20230;-77
2023/05/15 00:53:29;;;;;;;10.73;10.03;;;;;;;10.41;100.00;92811.63;5050165;28;20228;-77
2023/05/15 00:55:57;;;;;;;11.63;10.93;;;;;;;10.17;100.00;92815.97;5049339;28;20241;-77
2023/05/15 00:58:23;;;;;;;11.33;10.53;;;;;;;10.22;100.00;92820.38;5050132;28;20194;-78
2023/05/15 01:00:49;;;;;;;12.37;11.47;;;;;;;10.23;100.00;92809.66;5049289;28;20294;-78
2023/05/15 01:03:16;;;;;;;11.07;10.43;;;;;;;10.39;100.00;92795.47;5049892;28;20188;-78
2023/05/15 01:05:41;;;;;;;11.03;10.33;;;;;;;10.31;100.00;92816.91;5049367;28;20217;-78
2023/05/15 01:08:18;;;;;;;11.03;10.43;;;;;;;10.35;100.00;92819.78;5049956;28;20229;-78
2023/05/15 01:10:46;;;;;;;10.50;9.80;;;;;;;10.16;100.00;92814.41;5048975;28;20254;-78
2023/05/15 01:13:13;;;;;;;10.73;10.13;;;;;;;9.89;100.00;92815.81;5050147;28;20198;-78
2023/05/15 01:15:40;;;;;;;11.20;10.50;;;;;;;10.06;100.00;92821.47;5048719;28;21397;-76
2023/05/15 01:18:06;;;;;;;11.05;10.27;;;;;;;10.28;100.00;92812.25;5047497;28;20413;-75
2023/05/15 01:21:07;;;;;;;10.43;9.83;;;;;;;10.10;100.00;92792.00;5049752;28;20249;-75
2023/05/15 01:23:45;;;;;;;11.00;10.20;;;;;;;10.18;100.00;92799.25;5043953;28;20199;-75
2023/05/15 01:26:35;;;;;;;10.57;9.77;;;;;;;10.17;100.00;92797.72;5058183;28;20227;-75
2023/05/15 01:29:05;;;;;;;11.27;10.47;;;;;;;10.08;100.00;92793.31;5059699;28;20186;-75
2023/05/15 01:31:34;;;;;;;10.80;10.20;;;;;;;10.00;100.00;92779.00;5050123;28;20226;-75
2023/05/15 01:34:05;;;;;;;11.07;10.37;;;;;;;10.05;100.00;92786.81;5052836;28;20194;-74
2023/05/15 01:36:37;;;;;;;11.63;10.93;;;;;;;10.00;100.00;92775.59;5067245;28;20246;-75
2023/05/15 01:39:04;;;;;;;10.97;10.37;;;;;;;10.08;100.00;92795.94;5069294;28;20181;-75
2023/05/15 01:41:32;;;;;;;12.23;11.53;;;;;;;9.93;100.00;92783.72;5069116;28;20744;-74
2023/05/15 01:44:07;;;;;;;11.63;10.93;;;;;;;9.79;100.00;92778.34;5069650;28;20177;-75
2023/05/15 01:46:41;;;;;;;11.00;10.30;;;;;;;9.85;100.00;92781.72;5069177;28;20296;-75
2023/05/15 01:49:10;;;;;;;11.50;10.80;;;;;;;9.76;100.00;92772.88;5063947;28;20222;-75
2023/05/15 01:51:37;;;;;;;11.90;11.13;;;;;;;9.84;100.00;92777.53;5069240;28;20278;-75
2023/05/15 01:54:05;;;;;;;11.70;10.87;;;;;;;9.76;100.00;92767.66;5069347;28;20182;-75
2023/05/15 01:56:31;;;;;;;11.87;10.97;;;;;;;9.59;100.00;92746.38;5087341;28;20227;-75
2023/05/15 01:58:59;;;;;;;11.87;11.23;;;;;;;9.57;100.00;92766.72;5089303;28;20191;-74
2023/05/15 02:01:26;;;;;;;11.47;10.67;;;;;;;9.61;100.00;92742.47;5089090;28;20252;-75
2023/05/15 02:03:53;;;;;;;12.63;11.47;;;;;;;9.22;100.00;92759.84;5089115;28;20261;-75
2023/05/15 02:06:20;;;;;;;11.00;10.40;;;;;;;9.52;100.00;92777.19;5088855;28;20221;-75
2023/05/15 02:08:47;;;;;;;11.30;10.57;;;;;;;9.63;100.00;92779.44;5089331;28;20186;-74
2023/05/15 02:11:13;;;;;;;11.43;10.73;;;;;;;9.80;100.00;92792.16;5088853;28;20221;-75
2023/05/15 02:13:40;;;;;;;11.20;10.60;;;;;;;9.86;100.00;92767.63;5089425;28;20198;-75
2023/05/15 02:16:06;;;;;;;11.47;10.73;;;;;;;9.83;100.00;92781.19;5089010;28;20220;-74
2023/05/15 02:18:31;;;;;;;10.77;10.07;;;;;;;9.98;100.00;92788.16;5072008;28;20196;-74
2023/05/15 02:20:59;;;;;;;12.27;11.37;;;;;;;9.82;100.00;92780.41;5090548;28;20216;-74
2023/05/15 02:23:25;;;;;;;11.17;10.57;;;;;;;9.73;100.00;92776.81;5092453;28;20189;-74
2023/05/15 02:26:20;;;;;;;10.40;9.80;;;;;;;9.82;100.00;92777.03;5076208;28;20406;-74
2023/05/15 02:29:23;;;;;;;11.57;10.63;;;;;;;9.88;100.00;92746.47;5092925;28;20276;-74
2023/05/15 02:32:13;;;;;;;11.53;10.83;;;;;;;9.50;100.00;92763.63;5095259;28;20225;-74
2023/05/15 02:34:54;;;;;;;11.13;10.53;;;;;;;9.65;100.00;92755.72;5087688;28;20227;-75
2023/05/15 02:37:26;;;;;;;11.47;10.57;;;;;;;9.78;100.00;92758.53;5091102;28;20648;-76
2023/05/15 02:39:53;;;;;;;12.47;11.67;;;;;;;9.80;100.00;92737.41;5091939;28;20237;-75
2023/05/15 02:42:20;;;;;;;10.97;10.27;;;;;;;9.66;100.00;92736.44;5092624;28;20234;-74
2023/05/15 02:44:47;;;;;;;10.90;10.30;;;;;;;9.63;100.00;92757.84;5092163;28;20228;-75
2023/05/15 02:47:13;;;;;;;11.03;10.33;;;;;;;9.66;100.00;92770.34;5092609;28;20193;-75
2023/05/15 02:49:39;;;;;;;10.60;10.00;;;;;;;9.46;100.00;92758.16;5092550;28;20193;-75
2023/05/15 02:52:05;;;;;;;11.10;10.40;;;;;;;9.45;100.00;92763.63;5093020;28;20188;-75
2023/05/15 02:54:30;;;;;;;11.37;10.77;;;;;;;9.28;100.00;92726.72;5091786;28;20245;-75
2023/05/15 02:56:56;;;;;;;10.43;9.83;;;;;;;9.57;100.00;92743.28;5092124;28;20189;-75
2023/05/15 02:59:21;;;;;;;11.60;10.67;;;;;;;9.62;100.00;92735.41;5091603;28;20197;-75
2023/05/15 03:01:47;;;;;;;12.17;11.37;;;;;;;9.39;100.00;92755.06;5072052;28;20958;-74
2023/05/15 03:04:13;;;;;;;11.63;10.83;;;;;;;9.60;100.00;92750.56;5071929;28;20192;-74
2023/05/15 03:06:39;;;;;;;11.87;11.27;;;;;;;9.62;100.00;92746.63;5071491;28;20288;-75
2023/05/15 03:09:04;;;;;;;10.73;10.13;;;;;;;9.69;100.00;92728.09;5071986;28;20185;-75
2023/05/15 03:11:30;;;;;;;11.67;10.87;;;;;;;9.49;100.00;92754.25;5071553;28;20286;-75
2023/05/15 03:13:55;;;;;;;11.20;10.47;;;;;;;8.87;100.00;92678.47;5071869;28;20200;-74
2023/05/15 03:16:21;;;;;;;10.53;9.83;;;;;;;9.42;100.00;92761.56;5071322;28;20217;-74
2023/05/15 03:18:46;;;;;;;11.47;10.73;;;;;;;9.64;100.00;92759.38;5071433;28;20169;-75
2023/05/15 03:21:12;;;;;;;10.63;10.03;;;;;;;9.83;100.00;92770.75;5071298;28;20289;-75
2023/05/15 03:23:37;;;;;;;10.53;10.03;;;;;;;9.74;100.00;92775.00;5071798;28;20219;-75
2023/05/15 03:26:03;;;;;;;9.93;9.43;;;;;;;9.87;100.00;92758.72;5070986;28;20236;-75
2023/05/15 03:28:28;;;;;;;11.50;10.70;;;;;;;9.68;100.00;92768.25;5071826;28;20195;-75
2023/05/15 03:30:54;;;;;;;10.30;9.70;;;;;;;9.63;100.00;92755.22;5070773;28;20245;-75
2023/05/15 03:33:19;;;;;;;11.77;10.97;;;;;;;9.85;100.00;92757.44;5071238;28;20252;-75
2023/05/15 03:35:44;;;;;;;11.30;10.37;;;;;;;9.92;100.00;92753.50;5070731;28;20253;-75
2023/05/15 03:38:11;;;;;;;10.33;9.73;;;;;;;9.71;100.00;92750.22;5071197;28;20216;-75
2023/05/15 03:40:38;;;;;;;10.60;10.10;;;;;;;9.89;100.00;92748.81;5070927;28;20241;-75
2023/05/15 03:43:03;;;;;;;10.97;10.37;;;;;;;10.01;100.00;92733.59;5071162;28;20676;-75
2023/05/15 03:45:29;;;;;;;11.83;11.03;;;;;;;9.88;100.00;92739.44;5070355;28;20283;-74
2023/05/15 03:47:54;;;;;;;11.73;10.93;;;;;;;9.89;100.00;92735.00;5069175;28;20205;-75
2023/05/15 03:50:20;;;;;;;10.43;9.87;;;;;;;10.09;100.00;92740.09;5070596;28;20255;-75
2023/05/15 03:52:45;;;;;;;11.17;10.57;;;;;;;10.25;100.00;92750.16;5071238;28;20189;-70
2023/05/15 03:55:11;;;;;;;11.17;10.37;;;;;;;10.28;100.00;92751.44;5070682;28;20286;-70
2023/05/15 03:57:36;;;;;;;10.60;9.93;;;;;;;10.19;100.00;92745.25;5070985;28;20194;-69
2023/05/15 04:00:08;;;;;;;11.50;10.70;;;;;;;10.13;100.00;92746.34;5070276;28;20237;-69
2023/05/15 04:02:33;;;;;;;11.87;10.87;;;;;;;10.35;100.00;92763.13;5065274;28;20200;-71
2023/05/15 04:04:59;;;;;;;11.63;10.83;;;;;;;10.21;100.00;92743.91;5070279;28;20277;-72
2023/05/15 04:07:24;;;;;;;12.40;11.33;;;;;;;10.36;100.00;92762.09;5070721;28;20188;-67
2023/05/15 04:09:50;;;;;;;10.67;10.00;;;;;;;10.45;100.00;92747.41;5070253;28;20236;-69
2023/05/15 04:12:15;;;;;;;11.63;10.83;;;;;;;10.45;100.00;92749.22;5070385;28;20202;-67
2023/05/15 04:14:41;;;;;;;11.67;10.87;;;;;;;10.54;100.00;92756.19;5070082;28;20241;-67
2023/05/15 04:17:06;;;;;;;11.33;10.63;;;;;;;10.61;100.00;92774.94;5070536;28;20249;-66
2023/05/15 04:19:31;;;;;;;11.47;10.67;;;;;;;10.37;100.00;92776.69;5070158;28;20204;-68
2023/05/15 04:21:57;;;;;;;12.27;11.47;;;;;;;10.67;100.00;92775.66;5070828;28;20182;-67
2023/05/15 04:24:22;;;;;;;14.37;13.27;;;;;;;10.61;100.00;92776.75;5070100;28;20205;-67
2023/05/15 04:26:48;;;;;;;14.00;12.90;;;;;;;10.60;100.00;92775.97;5070173;28;20196;-70
2023/05/15 04:29:13;;;;;;;14.40;13.07;;;;;;;10.75;100.00;92768.03;5070274;28;20193;-69
2023/05/15 04:31:38;;;;;;;12.40;11.50;;;;;;;10.86;100.00;92779.91;5069729;28;20289;-66
2023/05/15 04:34:04;;;;;;;12.90;12.10;;;;;;;10.93;100.00;92769.94;5069777;28;20201;-67
2023/05/15 04:36:30;;;;;;;12.40;11.50;;;;;;;10.87;100.00;92771.03;5069543;28;20277;-66
2023/05/15 04:38:56;;;;;;;12.43;11.67;;;;;;;10.86;100.00;92773.94;5070185;28;20199;-66
2023/05/15 04:41:21;;;;;;;12.60;11.70;;;;;;;11.10;100.00;92764.28;5069307;28;20236;-68
2023/05/15 04:43:46;;;;;;;13.23;12.33;;;;;;;11.02;100.00;92744.75;5070140;28;20254;-67
2023/05/15 04:46:12;;;;;;;13.53;12.53;;;;;;;11.29;100.00;92742.38;5069321;28;20247;-67
2023/05/15 04:48:37;;;;;;;13.80;12.80;;;;;;;11.24;100.00;92747.66;5069882;28;20178;-66
2023/05/15 04:51:03;;;;;;;13.40;12.60;;;;;;;11.24;100.00;92739.03;5068554;28;20232;-67
2023/05/15 04:53:28;;;;;;;12.80;11.70;;;;;;;11.16;100.00;92734.41;5069328;28;20185;-66
2023/05/15 04:55:53;;;;;;;11.13;10.43;;;;;;;11.20;100.00;92744.06;5068277;28;20233;-67
2023/05/15 04:58:19;;;;;;;11.03;10.33;;;;;;;11.15;100.00;92751.94;5069024;28;20183;-66
2023/05/15 05:00:44;;;;;;;11.37;10.63;;;;;;;11.20;100.00;92754.50;5068375;28;20220;-67
2023/05/15 05:03:10;;;;;;;11.77;10.97;;;;;;;11.21;100.00;92752.66;5068944;28;20251;-67
2023/05/15 05:05:35;;;;;;;11.03;10.33;;;;;;;11.26;100.00;92747.38;5068830;28;20223;-67
2023/05/15 05:08:01;;;;;;;11.50;10.60;;;;;;;11.19;100.00;92752.19;5069704;28;20261;-67
2023/05/15 05:10:26;;;;;;;13.40;11.93;;;;;;;11.14;100.00;92733.94;5069525;28;20236;-67
2023/05/15 05:12:52;;;;;;;12.03;11.27;;;;;;;11.17;100.00;92726.28;5069711;28;20189;-67
2023/05/15 05:15:17;;;;;;;11.40;10.70;;;;;;;11.28;100.00;92732.22;5064141;28;20214;-67
2023/05/15 05:17:43;;;;;;;12.73;11.53;;;;;;;11.30;100.00;92730.84;5069875;28;20187;-67
2023/05/15 05:20:09;;;;;;;12.63;11.70;;;;;;;11.35;100.00;92736.03;5069139;28;20236;-68
2023/05/15 05:22:34;;;;;;;11.73;11.00;;;;;;;11.57;100.00;92729.47;5070038;28;20196;-67
2023/05/15 05:25:00;;;;;;;13.30;12.30;;;;;;;11.66;100.00;92728.63;5069400;28;20243;-67
2023/05/15 05:27:26;;;;;;;11.90;11.07;;;;;;;11.51;100.00;92735.84;5069350;28;20246;-67
2023/05/15 05:29:53;;;;;;;13.60;12.67;;;;;;;11.01;100.00;92732.75;5068558;28;20221;-67
2023/05/15 05:32:18;;;;;;;15.40;14.20;;;;;;;10.77;100.00;92729.34;5069586;28;20193;-66
2023/05/15 05:34:44;;;;;;;16.43;14.97;;;;;;;11.07;100.00;92734.25;5068805;28;20229;-68
2023/05/15 05:37:09;;;;;;;15.63;14.40;;;;;;;10.94;100.00;92742.75;5069342;28;20185;-67
2023/05/15 05:39:35;;;;;;;15.10;13.80;;;;;;;11.33;100.00;92742.63;5051566;28;20191;-67
2023/05/15 05:42:00;;;;;;;16.43;14.93;;;;;;;11.60;100.00;92752.47;5069399;28;20212;-67
2023/05/15 05:44:25;;;;;;;16.57;14.87;;;;;;;11.61;100.00;92744.31;5069204;28;20183;-67
2023/05/15 05:46:51;;;;;;;15.67;14.30;;;;;;;11.81;100.00;92744.13;5069022;28;20231;-67
2023/05/15 05:49:16;;;;;;;13.83;12.63;;;;;;;12.19;100.00;92747.50;5069469;28;20208;-68
2023/05/15 05:51:44;;;;;;;13.37;12.43;;;;;;;11.45;100.00;92739.59;5068936;28;20217;-66
2023/05/15 05:54:10;;;;;;;13.53;12.53;;;;;;;11.89;100.00;92740.09;5069692;28;20186;-67
2023/05/15 05:56:35;;;;;;;13.93;12.97;;;;;;;12.35;100.00;92733.91;5068861;28;20248;-67
2023/05/15 05:59:01;;;;;;;14.13;12.83;;;;;;;11.71;100.00;92740.84;5073510;28;20186;-67
2023/05/15 06:01:26;;;;;;;14.60;13.33;;;;;;;11.55;100.00;92729.75;5072460;28;20228;-67
2023/05/15 06:03:52;;;;;;;15.07;13.87;;;;;;;12.16;100.00;92745.44;5073160;28;20186;-67
2023/05/15 06:06:17;;;;;;;14.80;13.60;;;;;;;11.82;100.00;92747.50;5072596;28;20229;-67
2023/05/15 06:08:43;;;;;;;14.23;13.03;;;;;;;12.37;100.00;92751.94;5073128;28;20935;-67
2023/05/15 06:11:08;;;;;;;14.53;13.43;;;;;;;11.81;100.00;92751.19;5072305;28;20228;-67
2023/05/15 06:13:34;;;;;;;14.63;13.43;;;;;;;12.31;100.00;92758.31;5073182;28;20193;-67
2023/05/15 06:16:00;;;;;;;15.27;14.17;;;;;;;11.85;100.00;92755.56;5072323;28;20228;-67
2023/05/15 06:18:25;;;;;;;14.10;12.80;;;;;;;12.05;100.00;92755.28;5073042;28;20182;-68
2023/05/15 06:20:52;;;;;;;15.17;13.67;;;;;;;13.04;100.00;92753.22;5071722;28;20228;-67
2023/05/15 06:23:17;;;;;;;14.13;13.13;;;;;;;13.59;100.00;92755.56;5073270;28;20200;-69
2023/05/15 06:25:43;;;;;;;15.50;14.30;;;;;;;13.00;100.00;92744.34;5072084;28;20671;-67
2023/05/15 06:28:08;;;;;;;13.43;12.53;;;;;;;13.26;100.00;92737.59;5072699;28;20194;-67
2023/05/15 06:30:33;;;;;;;12.77;11.90;;;;;;;13.47;100.00;92757.91;5072516;28;20224;-67
2023/05/15 06:32:59;;;;;;;11.20;10.50;;;;;;;13.85;100.00;92751.34;5072252;28;20197;-67
2023/05/15 06:35:25;;;;;;;12.73;11.50;;;;;;;13.98;100.00;92747.13;5072100;28;20248;-67
2023/05/15 06:37:51;;;;;;;10.77;10.07;;;;;;;14.18;100.00;92747.47;5072437;28;20189;-67
2023/05/15 06:40:17;;;;;;;11.20;10.50;;;;;;;14.46;100.00;92758.69;5072022;28;20316;-67
2023/05/15 06:42:43;;;;;;;12.07;11.27;;;;;;;14.09;100.00;92751.09;5072070;28;20197;-67
2023/05/15 06:45:09;;;;;;;11.00;10.20;;;;;;;14.11;100.00;92759.47;5071931;28;21821;-67
2023/05/15 06:47:34;;;;;;;12.40;11.57;;;;;;;14.07;100.00;92772.41;5072328;28;20190;-67
2023/05/15 06:49:59;;;;;;;11.13;10.43;;;;;;;14.62;100.00;92775.66;5054068;28;20221;-67
2023/05/15 06:52:25;;;;;;;11.40;10.70;;;;;;;14.52;100.00;92764.63;5072744;28;20189;-69
2023/05/15 06:54:50;;;;;;;11.73;10.93;;;;;;;14.47;100.00;92779.41;5071413;28;20225;-71
2023/05/15 06:57:17;;;;;;;11.00;10.20;;;;;;;14.36;100.00;92764.97;5072664;28;20189;-71
2023/05/15 06:59:42;;;;;;;13.63;12.47;;;;;;;14.06;100.00;92775.31;5071313;28;20283;-71
2023/05/15 07:02:08;;;;;;;12.50;11.53;;;;;;;14.21;100.00;92761.88;5072209;28;20189;-72
2023/05/15 07:04:33;;;;;;;13.60;12.30;;;;;;;14.43;100.00;92780.31;5071337;28;20196;-72
2023/05/15 07:06:58;;;;;;;11.50;10.70;;;;;;;14.62;100.00;92788.00;5072012;28;20173;-71
2023/05/15 07:09:24;;;;;;;12.07;10.97;;;;;;;14.58;100.00;92785.22;5070740;28;20185;-71
2023/05/15 07:11:49;;;;;;;12.83;11.93;;;;;;;14.82;100.00;92769.16;5071877;28;20174;-71
2023/05/15 07:14:15;;;;;;;13.47;12.30;;;;;;;14.93;100.00;92762.56;5071614;28;20196;-71
2023/05/15 07:16:40;;;;;;;16.63;14.93;;;;;;;14.92;100.00;92779.41;5071682;28;20275;-71
2023/05/15 07:19:08;;;;;;;15.17;13.67;;;;;;;14.87;99.75;92764.53;5070661;28;20182;-71
2023/05/15 07:21:33;;;;;;;14.37;13.23;;;;;;;14.83;100.00;92775.97;5069224;28;20226;-72
2023/05/15 07:23:58;;;;;;;14.93;13.40;;;;;;;14.76;100.00;92780.84;5053280;28;20250;-71
2023/05/15 07:26:24;;;;;;;15.03;13.73;;;;;;;14.72;100.00;92772.03;5068965;28;20225;-72
2023/05/15 07:28:50;;;;;;;14.10;13.00;;;;;;;14.63;100.00;92776.44;5070696;28;20185;-72
2023/05/15 07:31:15;;;;;;;15.37;13.97;;;;;;;14.34;100.00;92775.00;5070520;28;20241;-72
2023/05/15 07:33:41;;;;;;;13.43;12.23;;;;;;;14.61;99.84;92794.34;5070579;28;20190;-72
2023/05/15 07:36:06;;;;;;;13.40;12.30;;;;;;;14.54;99.86;92783.50;5070648;28;20221;-72
2023/05/15 07:38:32;;;;;;;14.07;12.97;;;;;;;14.51;99.90;92771.72;5069750;28;20189;-72
2023/05/15 07:40:57;;;;;;;14.83;13.70;;;;;;;14.35;100.00;92773.91;5069509;28;20255;-72
2023/05/15 07:43:23;;;;;;;16.93;15.23;;;;;;;14.03;100.00;92771.44;5069878;28;20222;-71
2023/05/15 07:45:48;;;;;;;19.27;17.47;;;;;;;13.83;100.00;92769.25;5069535;28;20213;-72
2023/05/15 07:48:18;;;;;;;15.37;14.03;;;;;;;13.95;100.00;92761.63;5052181;28;20182;-71
2023/05/15 07:50:45;;;;;;;15.30;13.70;;;;;;;13.88;100.00;92777.00;5069000;28;20236;-72
2023/05/15 07:53:12;;;;;;;17.03;15.27;;;;;;;13.75;100.00;92780.44;5070906;28;20182;-71
2023/05/15 07:55:37;;;;;;;16.80;15.30;;;;;;;13.70;100.00;92774.50;5062302;28;20225;-71
2023/05/15 07:58:02;;;;;;;16.63;15.03;;;;;;;13.76;100.00;92792.47;5070700;28;20257;-72
2023/05/15 08:00:28;;;;;;;16.07;14.57;;;;;;;13.71;100.00;92783.94;5069973;28;20277;-72
2023/05/15 08:02:53;;;;;;;16.20;14.73;;;;;;;13.83;100.00;92789.47;5070215;28;20198;-71
2023/05/15 08:05:18;;;;;;;19.23;17.30;;;;;;;13.76;100.00;92795.09;5069973;28;20288;-72
2023/05/15 08:07:44;;;;;;;18.37;16.77;;;;;;;13.92;100.00;92798.19;5070186;28;20220;-71
2023/05/15 08:10:10;;;;;;;18.00;16.10;;;;;;;13.80;100.00;92800.53;5069946;28;20249;-71
2023/05/15 08:12:35;;;;;;;15.60;14.20;;;;;;;13.78;100.00;92805.28;5053338;28;20256;-71
2023/05/15 08:15:01;;;;;;;16.90;13.87;;;;;;;13.78;100.00;92795.59;5069961;28;20323;-72
2023/05/15 08:17:26;;;;;;;18.10;16.03;;;;;;;13.81;100.00;92805.50;5070279;28;20173;-71
2023/05/15 08:19:52;;;;;;;24.57;21.03;;;;;;;13.57;100.00;92793.66;5068657;28;20225;-72
2023/05/15 08:22:17;;;;;;;25.17;22.77;;;;;;;13.76;100.00;92794.34;5070468;28;20196;-72
2023/05/15 08:24:43;;;;;;;22.93;19.57;;;;;;;13.80;100.00;92796.09;5069853;28;20259;-72
2023/05/15 08:27:09;;;;;;;19.57;16.87;;;;;;;13.80;100.00;92795.28;5069812;28;20208;-72
2023/05/15 08:29:35;;;;;;;19.13;17.23;;;;;;;13.56;100.00;92782.38;5069501;28;20185;-72
2023/05/15 08:32:01;;;;;;;21.10;18.80;;;;;;;13.74;100.00;92785.97;5052609;28;20181;-72
2023/05/15 08:34:27;;;;;;;22.63;17.63;;;;;;;13.65;100.00;92778.00;5051976;28;20185;-70
2023/05/15 08:36:52;;;;;;;21.27;18.00;;;;;;;14.00;100.00;92792.25;5069802;28;20204;-69
2023/05/15 08:39:18;;;;;;;22.33;18.90;;;;;;;13.87;100.00;92785.16;5069930;28;20837;-69
2023/05/15 08:42:03;;;;;;;22.47;19.40;;;;;;;13.78;100.00;92784.31;5069274;28;20832;-69
2023/05/15 08:44:29;;;;;;;28.27;19.83;;;;;;;14.04;100.00;92786.13;5063800;28;20178;-68
2023/05/15 08:46:56;;;;;;;21.77;19.50;;;;;;;13.89;100.00;92788.28;5070421;28;20382;-69
2023/05/15 08:49:28;;;;;;;26.83;20.60;;;;;;;13.80;100.00;92785.59;5069601;28;20184;-70
2023/05/15 08:51:54;;;;;;;26.87;24.20;;;;;;;13.66;100.00;92786.66;5089476;28;20193;-69
2023/05/15 08:54:20;;;;;;;25.20;19.43;;;;;;;13.28;100.00;92774.78;5090391;28;20234;-69
2023/05/15 08:56:46;;;;;;;20.97;18.57;;;;;;;13.48;100.00;92783.06;5089620;28;20197;-69
2023/05/15 08:59:11;;;;;;;24.37;18.67;;;;;;;13.48;100.00;92782.28;5089846;28;20212;-69
2023/05/15 09:01:37;;;;;;;23.47;19.33;;;;;;;13.25;100.00;92778.78;5069641;28;20244;-69
2023/05/15 09:04:03;;;;;;;21.37;18.27;;;;;;;13.33;100.00;92774.69;5068576;28;20204;-69
2023/05/15 09:06:29;;;;;;;22.20;19.90;;;;;;;13.32;100.00;92763.44;5068239;28;20244;-70
2023/05/15 09:08:55;;;;;;;23.17;20.67;;;;;;;13.48;100.00;92777.81;5069138;28;20193;-70
2023/05/15 09:11:25;;;;;;;23.10;19.20;;;;;;;13.56;100.00;92779.75;5079670;28;20249;-70
2023/05/15 09:13:52;;;;;;;30.83;22.37;;;;;;;13.75;100.00;92780.44;5069359;28;20604;-70
2023/05/15 09:16:19;;;;;;;29.93;20.80;;;;;;;13.74;100.00;92768.38;5068901;28;20228;-70
2023/05/15 09:18:50;;;;;;;24.83;19.30;;;;;;;14.24;100.00;92753.44;5069014;28;20181;-71
2023/05/15 09:21:26;;;;;;;26.57;19.93;;;;;;;14.29;100.00;92758.56;5068541;28;20254;-70
2023/05/15 09:23:54;;;;;;;25.67;20.00;;;;;;;13.93;100.00;92757.75;5069019;28;20193;-68
2023/05/15 09:26:20;;;;;;;22.20;17.33;;;;;;;14.70;100.00;92761.03;5069340;28;20217;-68
2023/05/15 09:28:47;;;;;;;20.30;18.10;;;;;;;15.02;100.00;92742.38;5068546;28;20193;-69
2023/05/15 09:31:13;;;;;;;18.80;16.80;;;;;;;15.33;100.00;92753.66;5069170;28;20254;-69
2023/05/15 09:33:40;;;;;;;21.70;18.07;;;;;;;15.50;99.78;92751.13;5072977;28;20170;-68
2023/05/15 09:36:07;;;;;;;16.27;14.67;;;;;;;15.57;97.63;92740.91;5072445;28;20213;-68
2023/05/15 09:38:46;;;;;;;17.23;15.53;;;;;;;15.65;98.10;92751.47;5070843;28;20207;-68
2023/05/15 09:41:11;;;;;;;15.23;13.63;;;;;;;15.91;96.58;92738.34;5071595;28;20224;-69
2023/05/15 09:43:38;;;;;;;16.13;14.77;;;;;;;15.96;96.12;92735.59;5072269;28;20197;-68
2023/05/15 09:46:05;;;;;;;14.63;13.33;;;;;;;15.88;96.07;92728.44;5054554;28;20244;-68
2023/05/15 09:48:31;;;;;;;16.17;14.47;;;;;;;15.92;95.51;92719.63;5072212;28;20185;-68
2023/05/15 09:50:57;;;;;;;16.37;14.67;;;;;;;15.95;96.02;92708.47;5071497;28;20288;-68
2023/05/15 09:53:23;;;;;;;15.17;13.87;;;;;;;16.11;97.16;92711.41;5072099;28;20256;-68
2023/05/15 09:55:49;;;;;;;15.93;14.43;;;;;;;16.35;95.57;92717.03;5071828;28;20252;-74
2023/05/15 09:58:17;;;;;;;14.30;13.10;;;;;;;16.42;93.76;92713.91;5072775;28;20249;-76
2023/05/15 10:00:44;;;;;;;14.67;13.40;;;;;;;16.16;92.70;92708.66;5072012;28;20252;-75
2023/05/15 10:03:10;;;;;;;14.10;12.97;;;;;;;15.97;95.39;92726.59;5054900;28;20185;-75
2023/05/15 10:05:37;;;;;;;14.43;13.23;;;;;;;15.76;94.17;92704.59;5072127;28;20217;-74
2023/05/15 10:08:03;;;;;;;14.87;13.37;;;;;;;15.52;96.32;92699.72;5072868;28;20208;-74
2023/05/15 10:10:29;;;;;;;16.93;15.37;;;;;;;15.52;98.72;92715.50;5072013;28;20221;-75
2023/05/15 10:12:58;;;;;;;17.07;15.33;;;;;;;15.62;99.36;92717.88;5072707;28;20188;-75
2023/05/15 10:15:24;;;;;;;14.43;13.23;;;;;;;15.58;96.70;92713.53;5072151;28;20220;-75
2023/05/15 10:17:51;;;;;;;16.50;14.97;;;;;;;15.48;100.00;92713.81;5072726;28;20256;-75
2023/05/15 10:20:19;;;;;;;15.37;13.97;;;;;;;15.68;99.32;92702.69;5071565;28;20231;-75
2023/05/15 10:22:47;;;;;;;15.53;14.13;;;;;;;15.94;95.34;92721.94;5071209;28;20236;-69
2023/05/15 10:25:21;;;;;;;16.33;14.60;;;;;;;15.68;99.40;92702.69;5072326;28;20217;-68
2023/05/15 10:27:48;;;;;;;15.77;14.17;;;;;;;15.44;100.00;92728.66;5067861;28;20199;-68
2023/05/15 10:30:15;;;;;;;17.93;15.90;;;;;;;15.26;100.00;92722.53;5048522;28;20247;-68
2023/05/15 10:32:43;;;;;;;16.87;15.17;;;;;;;15.30;100.00;92730.59;5072562;28;20178;-69
2023/05/15 10:35:10;;;;;;;16.07;14.57;;;;;;;14.80;100.00;92735.25;5071642;28;20229;-68
2023/05/15 10:37:38;;;;;;;17.47;15.77;;;;;;;15.12;100.00;92736.84;5072325;28;20196;-69
2023/05/15 10:40:06;;;;;;;18.57;15.60;;;;;;;15.50;100.00;92749.25;5071414;28;20229;-68
2023/05/15 10:42:33;;;;;;;20.03;16.40;;;;;;;15.57;99.41;92741.69;5071367;28;20707;-69
2023/05/15 10:45:01;;;;;;;19.00;16.60;;;;;;;15.44;99.43;92723.41;5071432;28;20239;-68
2023/05/15 10:47:28;;;;;;;17.60;15.83;;;;;;;15.40;99.44;92732.97;5072469;28;20181;-69
2023/05/15 10:49:54;;;;;;;17.33;15.37;;;;;;;15.31;99.96;92750.53;5071192;28;20237;-68
2023/05/15 10:52:19;;;;;;;16.60;14.90;;;;;;;14.90;100.00;92750.81;5072587;28;20182;-69
2023/05/15 10:54:45;;;;;;;22.20;16.50;;;;;;;14.91;100.00;92751.59;5070855;28;20240;-69
2023/05/15 10:57:10;;;;;;;21.40;15.83;;;;;;;14.72;100.00;92756.25;5072209;28;20185;-69
2023/05/15 10:59:36;;;;;;;19.97;17.13;;;;;;;14.51;100.00;92753.31;5087105;28;20201;-68
2023/05/15 11:02:24;;;;;;;22.13;16.03;;;;;;;14.86;100.00;92746.44;5071996;28;20201;-68
2023/05/15 11:04:55;;;;;;;18.80;16.70;;;;;;;14.84;100.00;92741.50;5070990;28;20234;-69
2023/05/15 11:07:22;;;;;;;20.07;18.07;;;;;;;14.57;100.00;92743.50;5054420;28;20185;-69
2023/05/15 11:09:49;;;;;;;18.47;16.63;;;;;;;14.86;100.00;92736.72;5071486;28;20854;-68